createdAt,value
2017-08-17T00:02:12.763Z,13.97
2017-08-17T00:04:42.993Z,13.93
2017-08-17T00:07:12.488Z,13.93
2017-08-17T00:09:43.706Z,13.86
2017-08-17T00:12:12.442Z,13.81
2017-08-17T00:14:41.778Z,13.80
2017-08-17T00:17:10.408Z,13.83
2017-08-17T00:19:38.841Z,13.80
2017-08-17T00:22:09.430Z,13.85
2017-08-17T00:24:37.849Z,13.80
2017-08-17T00:27:08.761Z,13.73
2017-08-17T00:29:36.763Z,13.70
2017-08-17T00:32:05.044Z,13.74
2017-08-17T00:34:33.879Z,13.60
2017-08-17T00:37:02.842Z,13.55
2017-08-17T00:39:31.797Z,13.54
2017-08-17T00:42:03.439Z,13.53
2017-08-17T00:44:32.903Z,13.52
2017-08-17T00:47:02.631Z,13.49
2017-08-17T00:49:32.413Z,13.49
2017-08-17T00:52:02.007Z,13.46
2017-08-17T00:54:31.161Z,13.44
2017-08-17T00:57:01.107Z,13.45
2017-08-17T00:59:30.975Z,13.45
2017-08-17T01:02:00.369Z,13.43
2017-08-17T01:04:30.090Z,13.38
2017-08-17T01:06:59.779Z,13.36
2017-08-17T01:09:27.831Z,13.26
2017-08-17T01:11:57.019Z,13.11
2017-08-17T01:14:25.113Z,13.08
2017-08-17T01:16:54.356Z,13.11
2017-08-17T01:19:25.408Z,13.17
2017-08-17T01:21:57.710Z,13.20
2017-08-17T01:24:28.433Z,13.19
2017-08-17T01:26:57.070Z,13.19
2017-08-17T01:29:25.837Z,13.20
2017-08-17T01:31:57.531Z,13.23
2017-08-17T01:34:27.157Z,13.26
2017-08-17T01:36:56.773Z,13.27
2017-08-17T01:39:25.042Z,13.27
2017-08-17T01:41:54.169Z,13.28
2017-08-17T01:44:23.566Z,13.30
2017-08-17T01:46:53.618Z,13.29
2017-08-17T01:49:22.128Z,13.24
2017-08-17T01:51:51.425Z,13.15
2017-08-17T01:54:20.268Z,13.13
2017-08-17T01:56:50.698Z,13.12
2017-08-17T01:59:22.686Z,13.12
2017-08-17T02:01:51.412Z,13.12
2017-08-17T02:04:22.136Z,13.13
2017-08-17T02:06:51.324Z,13.09
2017-08-17T02:09:20.680Z,13.08
2017-08-17T02:11:49.100Z,13.07
2017-08-17T02:14:20.965Z,13.01
2017-08-17T02:16:49.846Z,13.01
2017-08-17T02:19:19.813Z,12.98
2017-08-17T02:21:49.257Z,12.97
2017-08-17T02:24:18.823Z,12.97
2017-08-17T02:26:46.833Z,12.95
2017-08-17T02:29:14.750Z,12.93
2017-08-17T02:31:44.353Z,12.94
2017-08-17T02:34:12.329Z,12.95
2017-08-17T02:36:42.493Z,12.97
2017-08-17T02:39:10.882Z,12.97
2017-08-17T02:41:40.730Z,12.88
2017-08-17T02:44:08.594Z,12.90
2017-08-17T02:46:36.643Z,12.89
2017-08-17T02:49:04.570Z,12.88
2017-08-17T02:51:33.483Z,12.89
2017-08-17T02:54:03.077Z,12.88
2017-08-17T02:56:32.086Z,12.89
2017-08-17T02:59:00.933Z,12.87
2017-08-17T03:01:29.594Z,12.84
2017-08-17T03:03:59.467Z,12.80
2017-08-17T03:06:27.506Z,12.79
2017-08-17T03:08:57.698Z,12.79
2017-08-17T03:13:58.810Z,12.78
2017-08-17T03:16:28.593Z,12.77
2017-08-17T03:18:58.324Z,12.70
2017-08-17T03:21:29.911Z,12.71
2017-08-17T03:23:58.952Z,12.73
2017-08-17T03:26:26.976Z,12.73
2017-08-17T03:28:57.446Z,12.72
2017-08-17T03:31:26.843Z,12.72
2017-08-17T03:33:56.380Z,12.71
2017-08-17T03:36:24.983Z,12.69
2017-08-17T03:38:55.991Z,12.72
2017-08-17T03:41:25.469Z,12.73
2017-08-17T03:43:54.583Z,12.73
2017-08-17T03:46:23.718Z,12.71
2017-08-17T03:48:55.788Z,12.72
2017-08-17T03:51:24.503Z,12.68
2017-08-17T03:53:56.617Z,12.61
2017-08-17T03:56:25.262Z,12.60
2017-08-17T03:58:53.072Z,12.60
2017-08-17T04:01:24.407Z,12.60
2017-08-17T04:03:53.552Z,12.63
2017-08-17T04:06:22.024Z,12.67
2017-08-17T04:08:49.897Z,12.63
2017-08-17T04:11:18.549Z,12.66
2017-08-17T04:13:47.282Z,12.67
2017-08-17T04:16:15.537Z,12.70
2017-08-17T04:18:43.424Z,12.72
2017-08-17T04:21:11.912Z,12.73
2017-08-17T04:23:41.553Z,12.73
2017-08-17T04:26:11.750Z,12.75
2017-08-17T04:28:39.705Z,12.77
2017-08-17T04:31:09.970Z,12.80
2017-08-17T04:33:38.804Z,12.86
2017-08-17T04:36:08.032Z,12.91
2017-08-17T04:38:36.024Z,12.96
2017-08-17T04:41:06.099Z,13.04
2017-08-17T04:43:34.976Z,13.12
2017-08-17T04:46:04.216Z,13.19
2017-08-17T04:48:33.579Z,13.25
2017-08-17T04:51:01.882Z,13.31
2017-08-17T04:53:31.971Z,13.40
2017-08-17T04:56:17.411Z,13.50
2017-08-17T04:58:45.698Z,13.58
2017-08-17T05:01:17.181Z,13.67
2017-08-17T05:03:46.173Z,13.77
2017-08-17T05:06:15.407Z,13.86
2017-08-17T05:08:43.300Z,14.02
2017-08-17T05:11:14.096Z,14.26
2017-08-17T05:13:43.110Z,14.45
2017-08-17T05:16:11.962Z,14.62
2017-08-17T05:18:41.021Z,14.98
2017-08-17T05:21:10.448Z,15.38
2017-08-17T05:23:39.181Z,15.72
2017-08-17T05:26:13.548Z,15.96
2017-08-17T05:28:41.673Z,16.35
2017-08-17T05:31:09.433Z,16.51
2017-08-17T05:33:38.541Z,16.68
2017-08-17T05:36:08.360Z,16.64
2017-08-17T05:38:38.688Z,16.50
2017-08-17T05:41:09.105Z,16.42
2017-08-17T05:43:39.480Z,16.39
2017-08-17T05:46:08.192Z,16.54
2017-08-17T05:48:36.087Z,16.64
2017-08-17T05:51:06.348Z,16.72
2017-08-17T05:53:35.693Z,16.79
2017-08-17T05:56:05.286Z,16.96
2017-08-17T05:58:34.280Z,17.16
2017-08-17T06:01:03.406Z,17.31
2017-08-17T06:03:33.704Z,17.44
2017-08-17T06:06:02.830Z,17.56
2017-08-17T06:08:32.243Z,17.61
2017-08-17T06:11:00.163Z,17.77
2017-08-17T06:13:30.663Z,18.07
2017-08-17T06:15:58.644Z,18.22
2017-08-17T06:18:29.946Z,18.31
2017-08-17T06:20:58.648Z,18.31
2017-08-17T06:23:26.533Z,18.33
2017-08-17T06:25:54.856Z,18.46
2017-08-17T06:28:23.031Z,18.58
2017-08-17T06:30:52.153Z,18.75
2017-08-17T06:33:21.484Z,18.85
2017-08-17T06:35:51.111Z,18.91
2017-08-17T06:38:20.637Z,19.05
2017-08-17T06:40:49.338Z,19.11
2017-08-17T06:43:18.178Z,19.22
2017-08-17T06:45:47.240Z,19.31
2017-08-17T06:48:18.148Z,19.50
2017-08-17T06:50:47.534Z,19.63
2017-08-17T06:53:16.043Z,19.69
2017-08-17T06:55:45.877Z,19.72
2017-08-17T06:58:14.404Z,19.75
2017-08-17T07:00:44.190Z,19.86
2017-08-17T07:03:15.368Z,19.99
2017-08-17T07:05:44.507Z,20.19
2017-08-17T07:08:14.004Z,20.33
2017-08-17T07:10:42.247Z,20.54
2017-08-17T07:13:11.230Z,20.70
2017-08-17T07:15:42.671Z,20.68
2017-08-17T07:18:11.984Z,20.78
2017-08-17T07:20:43.394Z,20.85
2017-08-17T07:23:11.642Z,21.01
2017-08-17T07:25:39.716Z,21.03
2017-08-17T07:28:10.162Z,21.14
2017-08-17T07:30:39.290Z,21.26
2017-08-17T07:33:07.682Z,21.43
2017-08-17T07:35:36.540Z,21.43
2017-08-17T07:38:04.538Z,21.57
2017-08-17T07:40:33.238Z,21.64
2017-08-17T07:43:02.897Z,21.81
2017-08-17T07:45:32.993Z,21.87
2017-08-17T07:48:02.527Z,21.83
2017-08-17T07:50:33.333Z,21.95
2017-08-17T07:53:03.353Z,22.11
2017-08-17T07:55:33.906Z,22.28
2017-08-17T07:58:03.568Z,22.27
2017-08-17T08:00:32.320Z,22.38
2017-08-17T08:03:02.611Z,22.50
2017-08-17T08:05:31.449Z,22.82
2017-08-17T08:08:03.249Z,22.87
2017-08-17T08:10:33.306Z,22.83
2017-08-17T08:13:03.546Z,22.65
2017-08-17T08:15:33.722Z,22.51
2017-08-17T08:18:02.732Z,22.62
2017-08-17T08:20:31.005Z,22.80
2017-08-17T08:23:01.417Z,22.85
2017-08-17T08:25:30.033Z,22.70
2017-08-17T08:27:59.230Z,22.92
2017-08-17T08:30:29.465Z,23.04
2017-08-17T08:32:58.644Z,23.00
2017-08-17T08:35:27.439Z,23.03
2017-08-17T08:37:57.678Z,22.97
2017-08-17T08:40:26.502Z,23.30
2017-08-17T08:42:55.607Z,23.54
2017-08-17T08:45:26.403Z,23.68
2017-08-17T08:47:57.669Z,23.77
2017-08-17T08:50:27.518Z,23.78
2017-08-17T08:52:56.940Z,23.91
2017-08-17T08:55:26.724Z,24.08
2017-08-17T08:57:56.605Z,24.15
2017-08-17T09:00:27.592Z,23.88
2017-08-17T09:02:56.474Z,23.33
2017-08-17T09:05:27.267Z,23.05
2017-08-17T09:07:57.846Z,23.12
2017-08-17T09:10:29.211Z,23.35
2017-08-17T09:12:58.350Z,23.53
2017-08-17T09:15:29.053Z,23.91
2017-08-17T09:17:57.792Z,24.27
2017-08-17T09:20:27.420Z,24.02
2017-08-17T09:22:55.323Z,23.61
2017-08-17T09:25:25.337Z,23.29
2017-08-17T09:27:55.438Z,23.14
2017-08-17T09:30:25.658Z,23.09
2017-08-17T09:32:55.046Z,23.23
2017-08-17T09:35:27.194Z,23.35
2017-08-17T09:37:57.038Z,23.30
2017-08-17T09:40:29.192Z,23.13
2017-08-17T09:42:58.461Z,23.05
2017-08-17T09:45:27.009Z,22.95
2017-08-17T09:47:55.780Z,22.82
2017-08-17T09:50:24.875Z,22.60
2017-08-17T09:52:53.999Z,22.50
2017-08-17T09:55:22.646Z,22.37
2017-08-17T09:57:52.869Z,22.30
2017-08-17T10:00:22.733Z,22.24
2017-08-17T10:02:52.485Z,22.28
2017-08-17T10:05:21.518Z,22.49
2017-08-17T10:07:51.204Z,22.73
2017-08-17T10:10:19.830Z,23.06
2017-08-17T10:12:50.253Z,23.35
2017-08-17T10:15:20.819Z,23.40
2017-08-17T10:17:49.489Z,23.66
2017-08-17T10:20:19.776Z,23.72
2017-08-17T10:22:50.346Z,23.59
2017-08-17T10:25:19.666Z,23.66
2017-08-17T10:27:48.334Z,23.79
2017-08-17T10:30:16.375Z,23.92
2017-08-17T10:32:46.125Z,23.88
2017-08-17T10:35:16.373Z,24.15
2017-08-17T10:37:45.326Z,24.44
2017-08-17T10:40:16.833Z,24.77
2017-08-17T10:42:46.610Z,24.95
2017-08-17T10:45:15.469Z,24.70
2017-08-17T10:47:44.842Z,24.65
2017-08-17T10:50:12.912Z,24.66
2017-08-17T10:52:42.670Z,24.82
2017-08-17T10:55:11.126Z,24.73
2017-08-17T10:57:41.268Z,24.92
2017-08-17T11:00:10.517Z,24.90
2017-08-17T11:02:38.522Z,24.68
2017-08-17T11:05:08.370Z,24.76
2017-08-17T11:07:37.733Z,24.96
2017-08-17T11:10:07.689Z,25.16
2017-08-17T11:12:36.766Z,24.97
2017-08-17T11:15:08.029Z,24.88
2017-08-17T11:17:38.306Z,24.63
2017-08-17T11:20:06.813Z,24.72
2017-08-17T11:22:36.549Z,24.65
2017-08-17T11:25:07.674Z,24.54
2017-08-17T11:27:36.903Z,24.39
2017-08-17T11:30:06.146Z,24.53
2017-08-17T11:32:35.429Z,24.66
2017-08-17T11:35:07.120Z,24.55
2017-08-17T11:37:36.533Z,24.50
2017-08-17T11:40:04.447Z,24.52
2017-08-17T11:42:33.016Z,24.59
2017-08-17T11:45:02.740Z,24.60
2017-08-17T11:47:32.655Z,24.54
2017-08-17T11:50:02.213Z,24.62
2017-08-17T11:52:30.798Z,24.68
2017-08-17T11:54:59.947Z,24.84
2017-08-17T11:57:29.201Z,24.81
2017-08-17T11:59:59.170Z,24.96
2017-08-17T12:02:27.709Z,25.17
2017-08-17T12:05:00.153Z,25.15
2017-08-17T12:07:29.584Z,24.93
2017-08-17T12:09:58.371Z,24.99
2017-08-17T12:12:31.681Z,25.06
2017-08-17T12:15:00.820Z,25.03
2017-08-17T12:17:29.913Z,24.87
2017-08-17T12:20:00.021Z,24.90
2017-08-17T12:22:31.420Z,25.03
2017-08-17T12:25:01.690Z,24.93
2017-08-17T12:27:31.354Z,24.83
2017-08-17T12:30:00.074Z,24.88
2017-08-17T12:32:29.612Z,24.94
2017-08-17T12:34:58.460Z,24.92
2017-08-17T12:37:28.258Z,24.96
2017-08-17T12:39:59.378Z,25.14
2017-08-17T12:42:30.403Z,25.28
2017-08-17T12:45:01.777Z,25.21
2017-08-17T12:47:30.222Z,25.39
2017-08-17T12:49:58.726Z,25.56
2017-08-17T12:52:29.650Z,25.48
2017-08-17T12:55:00.536Z,25.27
2017-08-17T12:57:30.612Z,25.28
2017-08-17T12:59:58.549Z,25.33
2017-08-17T13:02:31.374Z,25.40
2017-08-17T13:05:00.124Z,25.52
2017-08-17T13:07:29.200Z,25.47
2017-08-17T13:09:58.777Z,25.50
2017-08-17T13:12:28.355Z,25.52
2017-08-17T13:14:57.823Z,25.46
2017-08-17T13:17:28.428Z,25.66
2017-08-17T13:19:57.383Z,25.71
2017-08-17T13:22:27.740Z,25.64
2017-08-17T13:24:56.662Z,25.64
2017-08-17T13:27:25.695Z,25.55
2017-08-17T13:29:55.736Z,25.53
2017-08-17T13:34:58.648Z,25.41
2017-08-17T13:37:26.469Z,25.46
2017-08-17T13:39:55.484Z,25.60
2017-08-17T13:42:24.247Z,25.65
2017-08-17T13:44:53.607Z,25.73
2017-08-17T13:47:21.996Z,25.64
2017-08-17T13:49:52.535Z,25.48
2017-08-17T13:52:21.048Z,25.39
2017-08-17T13:54:49.525Z,25.46
2017-08-17T13:57:18.988Z,25.51
2017-08-17T13:59:48.356Z,25.60
2017-08-17T14:02:17.416Z,25.80
2017-08-17T14:04:47.707Z,25.87
2017-08-17T14:07:20.558Z,25.74
2017-08-17T14:09:50.362Z,25.74
2017-08-17T14:12:18.617Z,25.82
2017-08-17T14:14:48.957Z,25.98
2017-08-17T14:17:16.989Z,26.14
2017-08-17T14:19:47.450Z,26.01
2017-08-17T14:22:15.404Z,25.99
2017-08-17T14:24:43.292Z,25.89
2017-08-17T14:27:14.326Z,25.84
2017-08-17T14:29:43.383Z,25.84
2017-08-17T14:32:11.442Z,25.77
2017-08-17T14:34:40.800Z,25.57
2017-08-17T14:37:11.106Z,25.38
2017-08-17T14:39:41.027Z,25.23
2017-08-17T14:42:11.042Z,25.10
2017-08-17T14:44:40.175Z,24.99
2017-08-17T14:47:09.569Z,24.91
2017-08-17T14:49:40.087Z,24.88
2017-08-17T14:52:09.341Z,24.82
2017-08-17T14:54:37.598Z,24.75
2017-08-17T14:57:05.618Z,24.72
2017-08-17T14:59:36.014Z,24.73
2017-08-17T15:02:04.515Z,24.67
2017-08-17T15:04:33.112Z,24.62
2017-08-17T15:07:03.547Z,24.65
2017-08-17T15:09:31.989Z,24.67
2017-08-17T15:12:00.154Z,24.69
2017-08-17T15:14:28.360Z,24.72
2017-08-17T15:16:58.074Z,24.69
2017-08-17T15:19:25.925Z,24.61
2017-08-17T15:21:53.891Z,24.55
2017-08-17T15:24:22.251Z,24.49
2017-08-17T15:26:50.761Z,24.42
2017-08-17T15:29:20.170Z,24.33
2017-08-17T15:31:49.965Z,24.23
2017-08-17T15:34:17.833Z,24.12
2017-08-17T15:36:49.392Z,24.02
2017-08-17T15:39:17.325Z,23.91
2017-08-17T15:41:47.998Z,23.74
2017-08-17T15:44:18.004Z,23.54
2017-08-17T15:46:46.756Z,23.35
2017-08-17T15:49:17.149Z,23.13
2017-08-17T15:51:45.856Z,22.97
2017-08-17T15:54:14.810Z,22.85
2017-08-17T15:56:42.904Z,22.72
2017-08-17T15:59:13.088Z,22.59
2017-08-17T16:01:42.931Z,22.48
2017-08-17T16:04:13.119Z,22.40
2017-08-17T16:06:42.655Z,22.34
2017-08-17T16:09:12.025Z,22.25
2017-08-17T16:11:42.182Z,22.17
2017-08-17T16:14:12.209Z,22.11
2017-08-17T16:16:41.718Z,22.07
2017-08-17T16:19:11.110Z,22.03
2017-08-17T16:21:40.349Z,21.97
2017-08-17T16:24:08.688Z,21.88
2017-08-17T16:26:40.051Z,21.81
2017-08-17T16:29:08.730Z,21.77
2017-08-17T16:31:39.247Z,21.74
2017-08-17T16:34:09.532Z,21.71
2017-08-17T16:36:38.163Z,21.71
2017-08-17T16:39:09.192Z,21.68
2017-08-17T16:41:39.038Z,21.64
2017-08-17T16:44:08.181Z,21.60
2017-08-17T16:46:37.746Z,21.55
2017-08-17T16:49:08.103Z,21.49
2017-08-17T16:51:37.927Z,21.46
2017-08-17T16:54:07.533Z,21.44
2017-08-17T16:56:36.049Z,21.41
2017-08-17T16:59:05.582Z,21.38
2017-08-17T17:01:35.785Z,21.33
2017-08-17T17:04:05.418Z,21.26
2017-08-17T17:06:36.229Z,21.20
2017-08-17T17:09:04.905Z,21.13
2017-08-17T17:11:34.675Z,21.10
2017-08-17T17:14:03.432Z,21.04
2017-08-17T17:16:33.242Z,20.96
2017-08-17T17:19:02.616Z,20.87
2017-08-17T17:21:30.521Z,20.83
2017-08-17T17:23:59.837Z,20.80
2017-08-17T17:26:29.088Z,20.74
2017-08-17T17:28:57.187Z,20.69
2017-08-17T17:31:25.336Z,20.63
2017-08-17T17:33:54.654Z,20.60
2017-08-17T17:36:23.047Z,20.59
2017-08-17T17:38:51.054Z,20.58
2017-08-17T17:41:20.478Z,20.57
2017-08-17T17:43:50.582Z,20.58
2017-08-17T17:46:20.097Z,20.56
2017-08-17T17:48:51.482Z,20.59
2017-08-17T17:51:20.962Z,20.56
2017-08-17T17:53:50.883Z,20.52
2017-08-17T17:56:19.883Z,20.47
2017-08-17T17:58:48.902Z,20.47
2017-08-17T18:01:17.692Z,20.47
2017-08-17T18:03:47.557Z,20.45
2017-08-17T18:06:16.760Z,20.44
2017-08-17T18:08:46.958Z,20.42
2017-08-17T18:11:15.982Z,20.39
2017-08-17T18:13:46.246Z,20.33
2017-08-17T18:16:15.311Z,20.28
2017-08-17T18:18:44.837Z,20.25
2017-08-17T18:21:14.492Z,20.22
2017-08-17T18:26:17.463Z,20.12
2017-08-17T18:28:47.615Z,20.06
2017-08-17T18:31:16.381Z,19.96
2017-08-17T18:33:44.304Z,19.92
2017-08-17T18:36:14.726Z,19.90
2017-08-17T18:38:43.841Z,19.88
2017-08-17T18:41:12.666Z,19.83
2017-08-17T18:43:42.795Z,19.77
2017-08-17T18:46:12.625Z,19.72
2017-08-17T18:48:45.321Z,19.57
2017-08-17T18:51:14.649Z,19.46
2017-08-17T18:53:43.820Z,19.39
2017-08-17T18:56:13.298Z,19.28
2017-08-17T18:58:45.856Z,19.17
2017-08-17T19:01:16.293Z,19.09
2017-08-17T19:03:46.593Z,19.03
2017-08-17T19:06:14.819Z,19.03
2017-08-17T19:08:44.809Z,19.00
2017-08-17T19:13:47.969Z,19.00
2017-08-17T19:16:19.330Z,19.01
2017-08-17T19:18:48.255Z,18.98
2017-08-17T19:21:18.032Z,18.97
2017-08-17T19:23:47.437Z,18.95
2017-08-17T19:26:16.348Z,18.95
2017-08-17T19:28:46.769Z,18.94
2017-08-17T19:31:17.749Z,18.94
2017-08-17T19:33:47.408Z,18.92
2017-08-17T19:36:17.276Z,18.89
2017-08-17T19:38:46.461Z,18.87
2017-08-17T19:41:18.253Z,18.86
2017-08-17T19:43:47.568Z,18.84
2017-08-17T19:46:16.829Z,18.83
2017-08-17T19:48:51.517Z,18.83
2017-08-17T19:51:21.944Z,18.82
2017-08-17T19:53:52.210Z,18.80
2017-08-17T19:56:21.179Z,18.80
2017-08-17T19:58:52.043Z,18.79
2017-08-17T20:01:22.144Z,18.80
2017-08-17T20:03:52.577Z,18.79
2017-08-17T20:06:22.529Z,18.83
2017-08-17T20:08:52.085Z,18.85
2017-08-17T20:11:22.814Z,18.86
2017-08-17T20:13:52.927Z,18.88
2017-08-17T20:16:26.392Z,18.88
2017-08-17T20:18:58.402Z,18.86
2017-08-17T20:21:30.121Z,18.85
2017-08-17T20:24:00.540Z,18.86
2017-08-17T20:26:29.861Z,18.86
2017-08-17T20:29:02.525Z,18.87
2017-08-17T20:31:30.578Z,18.88
2017-08-17T20:33:59.329Z,18.88
2017-08-17T20:36:28.442Z,18.89
2017-08-17T20:38:57.335Z,18.90
2017-08-17T20:41:26.437Z,18.89
2017-08-17T20:43:54.234Z,18.89
2017-08-17T20:46:22.514Z,18.85
2017-08-17T20:48:50.758Z,18.86
2017-08-17T20:51:21.604Z,18.84
2017-08-17T20:53:51.403Z,18.85
2017-08-17T20:56:21.739Z,18.81
2017-08-17T20:58:50.437Z,18.81
2017-08-17T21:01:21.166Z,18.82
2017-08-17T21:03:49.646Z,18.84
2017-08-17T21:06:18.648Z,18.84
2017-08-17T21:08:47.700Z,18.85
2017-08-17T21:11:18.054Z,18.85
2017-08-17T21:13:47.272Z,18.85
2017-08-17T21:16:16.016Z,18.84
2017-08-17T21:18:44.758Z,18.85
2017-08-17T21:21:15.218Z,18.85
2017-08-17T21:23:44.176Z,18.86
2017-08-17T21:26:13.248Z,18.85
2017-08-17T21:28:43.165Z,18.85
2017-08-17T21:31:11.632Z,18.85
2017-08-17T21:33:40.652Z,18.80
2017-08-17T21:36:11.160Z,18.75
2017-08-17T21:38:39.944Z,18.71
2017-08-17T21:41:11.203Z,18.68
2017-08-17T21:43:43.921Z,18.65
2017-08-17T21:46:13.312Z,18.62
2017-08-17T21:48:42.271Z,18.61
2017-08-17T21:51:11.897Z,18.61
2017-08-17T21:53:40.240Z,18.62
2017-08-17T21:56:08.475Z,18.60
2017-08-17T21:58:37.792Z,18.59
2017-08-17T22:01:07.194Z,18.59
2017-08-17T22:03:35.799Z,18.60
2017-08-17T22:06:05.261Z,18.60
2017-08-17T22:08:33.517Z,18.55
2017-08-17T22:11:04.358Z,18.49
2017-08-17T22:13:34.553Z,18.44
2017-08-17T22:16:03.276Z,18.35
2017-08-17T22:18:31.200Z,18.28
2017-08-17T22:20:59.986Z,18.27
2017-08-17T22:23:28.454Z,18.28
2017-08-17T22:25:56.573Z,18.26
2017-08-17T22:28:25.880Z,18.25
2017-08-17T22:30:56.659Z,18.26
2017-08-17T22:33:27.017Z,18.25
2017-08-17T22:35:55.472Z,18.25
2017-08-17T22:38:24.541Z,18.28
2017-08-17T22:40:56.077Z,18.28
2017-08-17T22:43:25.124Z,18.28
2017-08-17T22:45:53.246Z,18.27
2017-08-17T22:48:21.864Z,18.25
2017-08-17T22:50:50.862Z,18.24
2017-08-17T22:53:21.547Z,18.27
2017-08-17T22:55:51.720Z,18.26
2017-08-17T22:58:20.478Z,18.28
2017-08-17T23:00:48.860Z,18.28
2017-08-17T23:03:19.332Z,18.25
2017-08-17T23:08:23.655Z,18.14
2017-08-17T23:10:54.133Z,18.10
2017-08-17T23:13:24.320Z,18.07
2017-08-17T23:15:58.040Z,18.06
2017-08-17T23:18:27.179Z,18.06
2017-08-17T23:20:55.965Z,18.06
2017-08-17T23:23:25.712Z,18.07
2017-08-17T23:25:54.861Z,18.06
2017-08-17T23:28:25.355Z,18.04
2017-08-17T23:30:53.801Z,18.03
2017-08-17T23:33:22.290Z,18.03
2017-08-17T23:35:52.734Z,18.05
2017-08-17T23:38:22.653Z,18.05
2017-08-17T23:40:51.587Z,18.07
2017-08-17T23:43:21.526Z,18.06
2017-08-17T23:45:49.892Z,18.08
2017-08-17T23:48:18.721Z,18.08
2017-08-17T23:50:48.847Z,18.10
2017-08-17T23:53:17.968Z,18.12
2017-08-17T23:55:47.348Z,18.10
2017-08-17T23:58:15.699Z,18.08
